sensor_id;sensor_type;location;lat;lon;timestamp;pressure;altitude;pressure_sealevel;temperature;humidity
20656;BME280;10487;53.320;8.672;2022-07-11T00:01:03;101974.63;;;21.68;43.96
20656;BME280;10487;53.320;8.672;2022-07-11T00:03:50;101979.16;;;21.67;44.09
20656;BME280;10487;53.320;8.672;2022-07-11T00:06:37;101977.44;;;21.66;44.07
20656;BME280;10487;53.320;8.672;2022-07-11T00:09:24;101981.97;;;21.66;44.17
20656;BME280;10487;53.320;8.672;2022-07-11T00:12:12;101979.28;;;21.66;43.97
20656;BME280;10487;53.320;8.672;2022-07-11T00:14:59;101977.56;;;21.65;44.21
20656;BME280;10487;53.320;8.672;2022-07-11T00:17:46;101980.28;;;21.65;43.94
20656;BME280;10487;53.320;8.672;2022-07-11T00:20:34;101978.53;;;21.64;44.17
20656;BME280;10487;53.320;8.672;2022-07-11T00:23:21;101981.25;;;21.64;44.19
20656;BME280;10487;53.320;8.672;2022-07-11T00:26:08;101973.16;;;21.64;44.03
20656;BME280;10487;53.320;8.672;2022-07-11T00:28:56;101989.22;;;21.65;43.99
20656;BME280;10487;53.320;8.672;2022-07-11T00:31:43;101979.28;;;21.66;44.19
20656;BME280;10487;53.320;8.672;2022-07-11T00:34:30;101986.53;;;21.65;44.12
20656;BME280;10487;53.320;8.672;2022-07-11T00:37:17;101985.66;;;21.65;44.07
20656;BME280;10487;53.320;8.672;2022-07-11T00:40:05;101983.94;;;21.64;44.20
20656;BME280;10487;53.320;8.672;2022-07-11T00:42:52;101981.38;;;21.62;44.40
20656;BME280;10487;53.320;8.672;2022-07-11T00:45:39;101976.94;;;21.61;44.11
20656;BME280;10487;53.320;8.672;2022-07-11T00:48:26;101983.19;;;21.62;44.45
20656;BME280;10487;53.320;8.672;2022-07-11T00:51:13;101970.72;;;21.61;44.21
20656;BME280;10487;53.320;8.672;2022-07-11T00:54:01;101976.94;;;21.61;44.46
20656;BME280;10487;53.320;8.672;2022-07-11T00:56:48;101976.13;;;21.61;44.37
20656;BME280;10487;53.320;8.672;2022-07-11T00:59:36;101963.75;;;21.58;44.28
20656;BME280;10487;53.320;8.672;2022-07-11T01:02:23;101976.34;;;21.58;44.21
20656;BME280;10487;53.320;8.672;2022-07-11T01:05:10;101966.53;;;21.57;44.25
20656;BME280;10487;53.320;8.672;2022-07-11T01:07:57;101969.38;;;21.55;44.36
20656;BME280;10487;53.320;8.672;2022-07-11T01:10:45;101971.06;;;21.56;44.34
20656;BME280;10487;53.320;8.672;2022-07-11T01:13:32;101971.19;;;21.55;44.32
20656;BME280;10487;53.320;8.672;2022-07-11T01:16:20;101973.03;;;21.54;44.31
20656;BME280;10487;53.320;8.672;2022-07-11T01:19:09;101970.34;;;21.54;44.26
20656;BME280;10487;53.320;8.672;2022-07-11T01:21:58;101969.59;;;21.52;44.23
20656;BME280;10487;53.320;8.672;2022-07-11T01:24:47;101965.19;;;21.51;44.25
20656;BME280;10487;53.320;8.672;2022-07-11T01:27:35;101967.06;;;21.51;44.44
20656;BME280;10487;53.320;8.672;2022-07-11T01:30:23;101968.03;;;21.50;44.59
20656;BME280;10487;53.320;8.672;2022-07-11T01:33:10;101962.75;;;21.48;44.50
20656;BME280;10487;53.320;8.672;2022-07-11T01:35:57;101970.84;;;21.48;44.35
20656;BME280;10487;53.320;8.672;2022-07-11T01:38:44;101967.16;;;21.49;44.69
20656;BME280;10487;53.320;8.672;2022-07-11T01:41:31;101971.69;;;21.49;44.55
20656;BME280;10487;53.320;8.672;2022-07-11T01:44:18;101967.16;;;21.49;44.55
20656;BME280;10487;53.320;8.672;2022-07-11T01:47:05;101958.22;;;21.49;44.62
20656;BME280;10487;53.320;8.672;2022-07-11T01:49:52;101963.50;;;21.50;44.64
20656;BME280;10487;53.320;8.672;2022-07-11T01:52:39;101964.47;;;21.49;44.68
20656;BME280;10487;53.320;8.672;2022-07-11T01:55:27;101955.41;;;21.50;44.64
20656;BME280;10487;53.320;8.672;2022-07-11T01:58:14;101958.09;;;21.50;44.71
20656;BME280;10487;53.320;8.672;2022-07-11T02:01:01;101950.88;;;21.51;44.71
20656;BME280;10487;53.320;8.672;2022-07-11T02:03:48;101952.72;;;21.50;44.67
20656;BME280;10487;53.320;8.672;2022-07-11T02:06:35;101953.69;;;21.49;44.76
20656;BME280;10487;53.320;8.672;2022-07-11T02:09:22;101953.69;;;21.49;44.69
20656;BME280;10487;53.320;8.672;2022-07-11T02:12:09;101952.00;;;21.48;44.69
20656;BME280;10487;53.320;8.672;2022-07-11T02:14:56;101950.25;;;21.47;44.73
20656;BME280;10487;53.320;8.672;2022-07-11T02:17:43;101952.00;;;21.48;44.90
20656;BME280;10487;53.320;8.672;2022-07-11T02:20:30;101953.81;;;21.48;44.75
20656;BME280;10487;53.320;8.672;2022-07-11T02:23:18;101952.00;;;21.48;44.94
20656;BME280;10487;53.320;8.672;2022-07-11T02:26:05;101950.25;;;21.47;44.89
20656;BME280;10487;53.320;8.672;2022-07-11T02:28:52;101952.00;;;21.48;44.89
20656;BME280;10487;53.320;8.672;2022-07-11T02:31:39;101959.31;;;21.46;44.83
20656;BME280;10487;53.320;8.672;2022-07-11T02:34:26;101957.63;;;21.45;44.99
20656;BME280;10487;53.320;8.672;2022-07-11T02:37:14;101959.44;;;21.45;44.85
20656;BME280;10487;53.320;8.672;2022-07-11T02:40:01;101969.50;;;21.43;44.89
20656;BME280;10487;53.320;8.672;2022-07-11T02:42:48;101967.75;;;21.42;45.05
20656;BME280;10487;53.320;8.672;2022-07-11T02:45:35;101962.59;;;21.39;44.97
20656;BME280;10487;53.320;8.672;2022-07-11T02:48:23;101975.25;;;21.38;44.83
20656;BME280;10487;53.320;8.672;2022-07-11T02:51:10;101959.19;;;21.37;45.03
20656;BME280;10487;53.320;8.672;2022-07-11T02:53:57;101964.56;;;21.37;45.06
20656;BME280;10487;53.320;8.672;2022-07-11T02:56:44;101960.19;;;21.36;44.81
20656;BME280;10487;53.320;8.672;2022-07-11T02:59:32;101962.88;;;21.36;44.99
20656;BME280;10487;53.320;8.672;2022-07-11T03:02:19;101961.00;;;21.36;44.92
20656;BME280;10487;53.320;8.672;2022-07-11T03:05:07;101958.47;;;21.35;45.08
20656;BME280;10487;53.320;8.672;2022-07-11T03:07:54;101962.13;;;21.34;45.10
20656;BME280;10487;53.320;8.672;2022-07-11T03:10:41;101955.91;;;21.33;45.16
20656;BME280;10487;53.320;8.672;2022-07-11T03:13:28;101958.47;;;21.35;45.03
20656;BME280;10487;53.320;8.672;2022-07-11T03:16:15;101957.72;;;21.33;45.09
20656;BME280;10487;53.320;8.672;2022-07-11T03:19:02;101964.06;;;21.32;45.20
20656;BME280;10487;53.320;8.672;2022-07-11T03:21:49;101960.53;;;21.31;45.12
20656;BME280;10487;53.320;8.672;2022-07-11T03:24:36;101971.28;;;21.31;45.16
20656;BME280;10487;53.320;8.672;2022-07-11T03:27:23;101964.22;;;21.30;45.15
20656;BME280;10487;53.320;8.672;2022-07-11T03:30:11;101971.28;;;21.31;45.30
20656;BME280;10487;53.320;8.672;2022-07-11T03:33:01;101973.16;;;21.31;45.25
20656;BME280;10487;53.320;8.672;2022-07-11T03:35:48;101974.97;;;21.30;45.15
20656;BME280;10487;53.320;8.672;2022-07-11T03:38:35;101981.22;;;21.31;45.38
20656;BME280;10487;53.320;8.672;2022-07-11T03:41:22;101976.69;;;21.31;45.44
20656;BME280;10487;53.320;8.672;2022-07-11T03:44:09;101985.75;;;21.30;45.30
20656;BME280;10487;53.320;8.672;2022-07-11T03:46:56;101976.94;;;21.28;45.25
20656;BME280;10487;53.320;8.672;2022-07-11T03:49:43;101981.47;;;21.27;45.40
20656;BME280;10487;53.320;8.672;2022-07-11T03:52:30;101978.78;;;21.27;45.29
20656;BME280;10487;53.320;8.672;2022-07-11T03:55:18;101975.22;;;21.27;45.51
20656;BME280;10487;53.320;8.672;2022-07-11T03:58:06;101977.91;;;21.27;45.41
20656;BME280;10487;53.320;8.672;2022-07-11T04:00:53;101974.34;;;21.26;45.50
20656;BME280;10487;53.320;8.672;2022-07-11T04:03:40;101975.22;;;21.27;45.44
20656;BME280;10487;53.320;8.672;2022-07-11T04:06:27;101976.94;;;21.28;45.33
20656;BME280;10487;53.320;8.672;2022-07-11T04:09:15;101976.94;;;21.28;45.44
20656;BME280;10487;53.320;8.672;2022-07-11T04:12:02;101983.19;;;21.28;45.50
20656;BME280;10487;53.320;8.672;2022-07-11T04:14:49;101979.75;;;21.26;45.37
20656;BME280;10487;53.320;8.672;2022-07-11T04:17:36;101984.28;;;21.26;45.44
20656;BME280;10487;53.320;8.672;2022-07-11T04:20:24;101978.03;;;21.25;45.60
20656;BME280;10487;53.320;8.672;2022-07-11T04:23:11;101979.88;;;21.25;45.41
20656;BME280;10487;53.320;8.672;2022-07-11T04:25:58;101977.19;;;21.25;45.41
20656;BME280;10487;53.320;8.672;2022-07-11T04:28:45;101976.31;;;21.24;45.49
20656;BME280;10487;53.320;8.672;2022-07-11T04:31:32;101977.19;;;21.25;45.65
20656;BME280;10487;53.320;8.672;2022-07-11T04:34:19;101968.22;;;21.24;45.67
20656;BME280;10487;53.320;8.672;2022-07-11T04:37:06;101971.94;;;21.23;45.82
20656;BME280;10487;53.320;8.672;2022-07-11T04:39:53;101973.53;;;21.26;45.74
20656;BME280;10487;53.320;8.672;2022-07-11T04:42:40;101974.47;;;21.25;45.70
20656;BME280;10487;53.320;8.672;2022-07-11T04:45:27;101975.44;;;21.24;45.75
20656;BME280;10487;53.320;8.672;2022-07-11T04:48:14;101974.47;;;21.25;45.64
20656;BME280;10487;53.320;8.672;2022-07-11T04:51:01;101976.22;;;21.26;45.75
20656;BME280;10487;53.320;8.672;2022-07-11T04:53:48;101980.75;;;21.25;45.85
20656;BME280;10487;53.320;8.672;2022-07-11T04:56:35;101986.72;;;21.29;46.17
20656;BME280;10487;53.320;8.672;2022-07-11T04:59:22;101983.81;;;21.54;46.22
20656;BME280;10487;53.320;8.672;2022-07-11T05:02:13;101984.19;;;21.72;46.22
20656;BME280;10487;53.320;8.672;2022-07-11T05:05:00;101992.50;;;21.80;46.18
20656;BME280;10487;53.320;8.672;2022-07-11T05:07:47;101987.84;;;21.82;46.08
20656;BME280;10487;53.320;8.672;2022-07-11T05:10:34;101985.03;;;21.83;46.05
20656;BME280;10487;53.320;8.672;2022-07-11T05:13:23;101993.09;;;21.83;46.00
20656;BME280;10487;53.320;8.672;2022-07-11T05:16:10;101990.41;;;21.83;46.08
20656;BME280;10487;53.320;8.672;2022-07-11T05:18:57;101984.19;;;21.83;46.00
20656;BME280;10487;53.320;8.672;2022-07-11T05:21:44;101979.63;;;21.83;45.92
20656;BME280;10487;53.320;8.672;2022-07-11T05:24:31;101990.22;;;21.86;46.25
20656;BME280;10487;53.320;8.672;2022-07-11T05:27:18;101993.75;;;21.87;45.90
20656;BME280;10487;53.320;8.672;2022-07-11T05:30:05;102000.88;;;21.88;46.23
20656;BME280;10487;53.320;8.672;2022-07-11T05:32:52;101997.09;;;21.90;46.15
20656;BME280;10487;53.320;8.672;2022-07-11T05:35:39;101997.09;;;21.90;46.14
20656;BME280;10487;53.320;8.672;2022-07-11T05:38:27;101994.38;;;21.90;46.19
20656;BME280;10487;53.320;8.672;2022-07-11T05:41:14;102005.19;;;21.90;46.04
20656;BME280;10487;53.320;8.672;2022-07-11T05:44:01;102001.47;;;21.91;46.38
20656;BME280;10487;53.320;8.672;2022-07-11T05:46:48;101999.50;;;21.93;46.11
20656;BME280;10487;53.320;8.672;2022-07-11T05:49:35;102009.19;;;21.96;46.06
20656;BME280;10487;53.320;8.672;2022-07-11T05:52:22;102008.94;;;21.99;46.05
20656;BME280;10487;53.320;8.672;2022-07-11T05:55:09;102012.38;;;22.01;46.21
20656;BME280;10487;53.320;8.672;2022-07-11T05:58:04;102010.53;;;22.02;45.93
20656;BME280;10487;53.320;8.672;2022-07-11T06:00:51;102023.06;;;22.03;46.22
20656;BME280;10487;53.320;8.672;2022-07-11T06:03:38;102017.38;;;22.06;46.11
20656;BME280;10487;53.320;8.672;2022-07-11T06:06:26;102013.47;;;22.10;46.04
20656;BME280;10487;53.320;8.672;2022-07-11T06:09:14;102020.84;;;22.08;46.18
20656;BME280;10487;53.320;8.672;2022-07-11T06:12:01;102016.41;;;22.07;45.90
20656;BME280;10487;53.320;8.672;2022-07-11T06:14:48;102008.56;;;22.04;46.27
20656;BME280;10487;53.320;8.672;2022-07-11T06:17:35;102012.25;;;22.03;46.24
20656;BME280;10487;53.320;8.672;2022-07-11T06:20:22;102020.59;;;22.00;46.03
20656;BME280;10487;53.320;8.672;2022-07-11T06:23:09;102015.31;;;21.98;46.20
20656;BME280;10487;53.320;8.672;2022-07-11T06:25:57;102016.41;;;21.96;46.20
20656;BME280;10487;53.320;8.672;2022-07-11T06:28:44;102018.28;;;21.95;46.10
20656;BME280;10487;53.320;8.672;2022-07-11T06:31:31;102013.84;;;21.94;46.08
20656;BME280;10487;53.320;8.672;2022-07-11T06:34:18;102017.53;;;21.93;46.22
20656;BME280;10487;53.320;8.672;2022-07-11T06:37:05;102014.00;;;21.92;46.03
20656;BME280;10487;53.320;8.672;2022-07-11T06:39:52;101999.50;;;21.93;46.19
20656;BME280;10487;53.320;8.672;2022-07-11T06:42:39;102015.69;;;21.93;46.51
20656;BME280;10487;53.320;8.672;2022-07-11T06:45:28;102009.31;;;21.95;46.51
20656;BME280;10487;53.320;8.672;2022-07-11T06:48:15;102014.72;;;21.95;46.56
20656;BME280;10487;53.320;8.672;2022-07-11T06:51:02;102009.91;;;21.98;46.36
20656;BME280;10487;53.320;8.672;2022-07-11T06:53:52;102007.13;;;22.00;46.29
20656;BME280;10487;53.320;8.672;2022-07-11T06:56:38;102008.81;;;22.01;46.45
20656;BME280;10487;53.320;8.672;2022-07-11T06:59:26;102006.88;;;22.03;46.40
20656;BME280;10487;53.320;8.672;2022-07-11T07:02:13;102008.56;;;22.04;46.54
20656;BME280;10487;53.320;8.672;2022-07-11T07:05:00;102024.75;;;22.04;46.57
20656;BME280;10487;53.320;8.672;2022-07-11T07:07:47;102023.06;;;22.03;46.37
20656;BME280;10487;53.320;8.672;2022-07-11T07:10:35;102023.28;;;22.00;46.57
20656;BME280;10487;53.320;8.672;2022-07-11T07:13:22;102023.41;;;21.98;46.54
20656;BME280;10487;53.320;8.672;2022-07-11T07:16:12;102034.19;;;21.98;46.35
20656;BME280;10487;53.320;8.672;2022-07-11T07:18:59;102032.47;;;21.97;46.59
20656;BME280;10487;53.320;8.672;2022-07-11T07:21:46;102019.88;;;21.98;46.61
20656;BME280;10487;53.320;8.672;2022-07-11T07:24:35;102019.88;;;21.98;46.38
20656;BME280;10487;53.320;8.672;2022-07-11T07:27:25;102021.56;;;21.99;46.39
20656;BME280;10487;53.320;8.672;2022-07-11T07:30:12;102024.16;;;22.00;46.52
20656;BME280;10487;53.320;8.672;2022-07-11T07:32:59;102013.22;;;22.02;46.63
20656;BME280;10487;53.320;8.672;2022-07-11T07:35:49;102015.69;;;22.05;46.80
20656;BME280;10487;53.320;8.672;2022-07-11T07:38:37;102017.28;;;22.07;46.63
20656;BME280;10487;53.320;8.672;2022-07-11T07:41:24;102020.69;;;22.09;46.85
20656;BME280;10487;53.320;8.672;2022-07-11T07:44:11;102024.13;;;22.11;46.79
20656;BME280;10487;53.320;8.672;2022-07-11T07:46:58;102021.31;;;22.13;46.52
20656;BME280;10487;53.320;8.672;2022-07-11T07:49:45;102027.44;;;22.15;46.70
20656;BME280;10487;53.320;8.672;2022-07-11T07:52:31;102028.31;;;22.15;46.79
20656;BME280;10487;53.320;8.672;2022-07-11T07:55:19;102029.13;;;22.16;46.85
20656;BME280;10487;53.320;8.672;2022-07-11T07:58:06;102025.59;;;22.15;46.72
20656;BME280;10487;53.320;8.672;2022-07-11T08:00:53;102033.69;;;22.15;46.64
20656;BME280;10487;53.320;8.672;2022-07-11T08:03:59;102035.78;;;22.23;47.22
20656;BME280;10487;53.320;8.672;2022-07-11T08:06:47;102036.59;;;22.34;47.24
20656;BME280;10487;53.320;8.672;2022-07-11T08:09:34;102039.41;;;22.44;46.95
20656;BME280;10487;53.320;8.672;2022-07-11T08:12:21;102043.53;;;22.48;47.12
20656;BME280;10487;53.320;8.672;2022-07-11T08:15:09;102037.19;;;22.49;46.86
20656;BME280;10487;53.320;8.672;2022-07-11T08:17:56;102043.28;;;22.51;47.26
20656;BME280;10487;53.320;8.672;2022-07-11T08:20:43;102044.88;;;22.53;46.92
20656;BME280;10487;53.320;8.672;2022-07-11T08:23:30;102049.31;;;22.54;47.00
20656;BME280;10487;53.320;8.672;2022-07-11T08:26:17;102051.75;;;22.58;47.02
20656;BME280;10487;53.320;8.672;2022-07-11T08:29:04;102051.63;;;22.59;47.08
20656;BME280;10487;53.320;8.672;2022-07-11T08:31:52;102058.00;;;22.58;47.24
20656;BME280;10487;53.320;8.672;2022-07-11T08:34:39;102057.03;;;22.59;46.86
20656;BME280;10487;53.320;8.672;2022-07-11T08:37:26;102055.19;;;22.60;47.26
20656;BME280;10487;53.320;8.672;2022-07-11T08:40:13;102058.72;;;22.60;47.23
20656;BME280;10487;53.320;8.672;2022-07-11T08:43:01;102060.44;;;22.61;46.98
20656;BME280;10487;53.320;8.672;2022-07-11T08:45:50;102056.81;;;22.62;46.86
20656;BME280;10487;53.320;8.672;2022-07-11T08:48:38;102051.41;;;22.62;46.94
20656;BME280;10487;53.320;8.672;2022-07-11T08:51:27;102056.88;;;22.61;47.23
20656;BME280;10487;53.320;8.672;2022-07-11T08:54:14;102054.94;;;22.63;47.00
20656;BME280;10487;53.320;8.672;2022-07-11T08:57:02;102056.28;;;22.68;47.37
20656;BME280;10487;53.320;8.672;2022-07-11T08:59:54;102055.06;;;22.72;47.29
20656;BME280;10487;53.320;8.672;2022-07-11T09:02:43;102046.56;;;22.77;47.15
20656;BME280;10487;53.320;8.672;2022-07-11T09:05:32;102049.03;;;22.80;47.47
20656;BME280;10487;53.320;8.672;2022-07-11T09:08:19;102052.28;;;22.83;47.56
20656;BME280;10487;53.320;8.672;2022-07-11T09:11:06;102052.19;;;22.85;47.54
20656;BME280;10487;53.320;8.672;2022-07-11T09:13:53;102052.03;;;22.86;47.09
20656;BME280;10487;53.320;8.672;2022-07-11T09:16:52;102059.91;;;22.89;47.42
20656;BME280;10487;53.320;8.672;2022-07-11T09:19:39;102059.19;;;22.87;47.23
20656;BME280;10487;53.320;8.672;2022-07-11T09:22:27;102053.63;;;22.89;46.93
20656;BME280;10487;53.320;8.672;2022-07-11T09:25:41;102051.50;;;22.92;47.31
20656;BME280;10487;53.320;8.672;2022-07-11T09:28:28;102045.47;;;23.00;47.39
20656;BME280;10487;53.320;8.672;2022-07-11T09:31:17;102047.88;;;23.14;47.44
20656;BME280;10487;53.320;8.672;2022-07-11T09:34:09;102042.75;;;23.32;47.86
20656;BME280;10487;53.320;8.672;2022-07-11T09:36:56;102054.66;;;23.50;47.81
20656;BME280;10487;53.320;8.672;2022-07-11T09:39:45;102054.34;;;23.64;47.73
20656;BME280;10487;53.320;8.672;2022-07-11T09:42:48;102058.69;;;23.76;47.89
20656;BME280;10487;53.320;8.672;2022-07-11T09:45:35;102059.84;;;23.83;47.55
20656;BME280;10487;53.320;8.672;2022-07-11T09:48:28;102057.03;;;23.94;47.55
20656;BME280;10487;53.320;8.672;2022-07-11T09:51:20;102052.41;;;24.06;47.52
20656;BME280;10487;53.320;8.672;2022-07-11T09:54:08;102059.59;;;24.16;47.71
20656;BME280;10487;53.320;8.672;2022-07-11T09:56:55;102055.47;;;24.22;47.67
20656;BME280;10487;53.320;8.672;2022-07-11T09:59:44;102060.75;;;24.23;47.58
20656;BME280;10487;53.320;8.672;2022-07-11T10:02:33;102056.31;;;24.22;47.15
20656;BME280;10487;53.320;8.672;2022-07-11T10:05:20;102060.00;;;24.21;47.29
20656;BME280;10487;53.320;8.672;2022-07-11T10:08:07;102059.59;;;24.16;47.16
20656;BME280;10487;53.320;8.672;2022-07-11T10:10:55;102060.84;;;24.12;47.15
20656;BME280;10487;53.320;8.672;2022-07-11T10:13:42;102061.25;;;24.08;47.12
20656;BME280;10487;53.320;8.672;2022-07-11T10:17:18;102067.06;;;24.03;47.12
20656;BME280;10487;53.320;8.672;2022-07-11T10:23:12;102064.16;;;23.95;47.08
20656;BME280;10487;53.320;8.672;2022-07-11T10:26:10;102065.03;;;23.96;47.35
20656;BME280;10487;53.320;8.672;2022-07-11T10:29:05;102062.19;;;23.97;47.49
20656;BME280;10487;53.320;8.672;2022-07-11T10:35:07;102054.06;;;23.97;47.45
20656;BME280;10487;53.320;8.672;2022-07-11T10:37:54;102065.59;;;23.99;47.51
20656;BME280;10487;53.320;8.672;2022-07-11T10:40:48;102064.47;;;24.02;47.08
20656;BME280;10487;53.320;8.672;2022-07-11T10:43:37;102066.78;;;24.06;47.49
20656;BME280;10487;53.320;8.672;2022-07-11T10:46:26;102078.34;;;24.08;47.34
20656;BME280;10487;53.320;8.672;2022-07-11T10:52:06;102077.50;;;24.08;47.08
20656;BME280;10487;53.320;8.672;2022-07-11T10:55:36;102076.75;;;24.06;47.45
20656;BME280;10487;53.320;8.672;2022-07-11T10:58:31;102083.28;;;24.03;47.01
20656;BME280;10487;53.320;8.672;2022-07-11T11:01:18;102088.97;;;24.00;47.38
20656;BME280;10487;53.320;8.672;2022-07-11T11:15:52;102074.63;;;24.09;47.50
20656;BME280;10487;53.320;8.672;2022-07-11T11:18:42;102081.34;;;24.15;47.30
20656;BME280;10487;53.320;8.672;2022-07-11T11:21:29;102074.28;;;24.23;47.70
20656;BME280;10487;53.320;8.672;2022-07-11T11:24:16;102074.31;;;24.33;47.56
20656;BME280;10487;53.320;8.672;2022-07-11T11:27:03;102075.03;;;24.44;47.58
20656;BME280;10487;53.320;8.672;2022-07-11T11:29:52;102078.34;;;24.58;47.54
20656;BME280;10487;53.320;8.672;2022-07-11T11:32:49;102075.50;;;24.69;47.47
20656;BME280;10487;53.320;8.672;2022-07-11T11:35:36;102070.72;;;24.82;47.78
20656;BME280;10487;53.320;8.672;2022-07-11T11:38:23;102070.44;;;24.94;47.45
20656;BME280;10487;53.320;8.672;2022-07-11T11:41:13;102071.03;;;25.07;47.42
20656;BME280;10487;53.320;8.672;2022-07-11T11:44:01;102069.28;;;25.16;47.75
20656;BME280;10487;53.320;8.672;2022-07-11T11:46:50;102077.56;;;25.24;47.32
20656;BME280;10487;53.320;8.672;2022-07-11T11:49:43;102080.41;;;25.32;47.58
20656;BME280;10487;53.320;8.672;2022-07-11T11:52:32;102072.00;;;25.35;47.44
20656;BME280;10487;53.320;8.672;2022-07-11T11:55:19;102079.69;;;25.40;47.30
20656;BME280;10487;53.320;8.672;2022-07-11T11:58:06;102072.97;;;25.44;47.41
20656;BME280;10487;53.320;8.672;2022-07-11T12:00:54;102083.56;;;25.47;47.16
20656;BME280;10487;53.320;8.672;2022-07-11T12:03:57;102074.56;;;25.46;46.98
20656;BME280;10487;53.320;8.672;2022-07-11T12:06:46;102085.56;;;25.45;47.08
20656;BME280;10487;53.320;8.672;2022-07-11T12:09:33;102089.38;;;25.42;46.92
20656;BME280;10487;53.320;8.672;2022-07-11T12:12:37;102084.25;;;25.39;46.91
20656;BME280;10487;53.320;8.672;2022-07-11T12:15:33;102082.41;;;25.40;47.15
20656;BME280;10487;53.320;8.672;2022-07-11T12:18:43;102079.81;;;25.38;46.88
20656;BME280;10487;53.320;8.672;2022-07-11T12:21:30;102089.94;;;25.36;46.93
20656;BME280;10487;53.320;8.672;2022-07-11T12:24:22;102090.25;;;25.33;46.60
20656;BME280;10487;53.320;8.672;2022-07-11T12:27:09;102095.22;;;25.28;46.79
20656;BME280;10487;53.320;8.672;2022-07-11T12:29:57;102093.13;;;25.22;46.75
20656;BME280;10487;53.320;8.672;2022-07-11T12:33:10;102087.97;;;25.19;46.75
20656;BME280;10487;53.320;8.672;2022-07-11T12:36:00;102081.84;;;25.17;46.83
20656;BME280;10487;53.320;8.672;2022-07-11T12:38:50;102081.69;;;25.19;46.75
20656;BME280;10487;53.320;8.672;2022-07-11T12:41:40;102074.16;;;25.22;46.64
20656;BME280;10487;53.320;8.672;2022-07-11T12:44:30;102087.25;;;25.27;46.86
20656;BME280;10487;53.320;8.672;2022-07-11T12:47:38;102076.25;;;25.28;47.00
20656;BME280;10487;53.320;8.672;2022-07-11T12:50:27;102075.84;;;25.33;46.83
20656;BME280;10487;53.320;8.672;2022-07-11T12:53:16;102073.56;;;25.38;46.85
20656;BME280;10487;53.320;8.672;2022-07-11T12:56:03;102083.97;;;25.42;46.94
20656;BME280;10487;53.320;8.672;2022-07-11T12:58:50;102085.28;;;25.48;46.87
20656;BME280;10487;53.320;8.672;2022-07-11T13:01:53;102089.25;;;25.53;46.96
20656;BME280;10487;53.320;8.672;2022-07-11T13:04:48;102092.13;;;25.52;46.56
20656;BME280;10487;53.320;8.672;2022-07-11T13:07:35;102085.84;;;25.51;46.81
20656;BME280;10487;53.320;8.672;2022-07-11T13:10:41;102088.38;;;25.53;46.67
20656;BME280;10487;53.320;8.672;2022-07-11T13:13:51;102085.09;;;25.59;46.86
20656;BME280;10487;53.320;8.672;2022-07-11T13:16:38;102079.94;;;25.65;46.93
20656;BME280;10487;53.320;8.672;2022-07-11T13:19:25;102087.50;;;25.71;46.88
20656;BME280;10487;53.320;8.672;2022-07-11T13:22:13;102082.66;;;25.75;46.75
20656;BME280;10487;53.320;8.672;2022-07-11T13:25:00;102078.47;;;25.81;46.73
20656;BME280;10487;53.320;8.672;2022-07-11T13:27:48;102080.59;;;25.87;47.01
20656;BME280;10487;53.320;8.672;2022-07-11T13:30:36;102081.00;;;25.92;46.75
20656;BME280;10487;53.320;8.672;2022-07-11T13:33:44;102096.69;;;25.98;46.58
20656;BME280;10487;53.320;8.672;2022-07-11T13:36:31;102095.69;;;25.99;46.67
20656;BME280;10487;53.320;8.672;2022-07-11T13:39:18;102096.69;;;25.98;46.80
20656;BME280;10487;53.320;8.672;2022-07-11T13:42:05;102101.97;;;25.99;46.54
20656;BME280;10487;53.320;8.672;2022-07-11T13:44:52;102099.38;;;25.98;46.71
20656;BME280;10487;53.320;8.672;2022-07-11T13:47:40;102096.69;;;25.98;46.47
20656;BME280;10487;53.320;8.672;2022-07-11T13:50:28;102100.25;;;25.98;46.46
20656;BME280;10487;53.320;8.672;2022-07-11T13:53:15;102103.66;;;26.00;46.44
20656;BME280;10487;53.320;8.672;2022-07-11T13:56:02;102109.66;;;26.04;46.57
20656;BME280;10487;53.320;8.672;2022-07-11T13:58:49;102111.38;;;26.05;46.38
20656;BME280;10487;53.320;8.672;2022-07-11T14:01:37;102102.50;;;26.03;46.33
20656;BME280;10487;53.320;8.672;2022-07-11T14:04:24;102102.84;;;26.00;46.27
20656;BME280;10487;53.320;8.672;2022-07-11T14:07:15;102104.00;;;25.97;46.19
20656;BME280;10487;53.320;8.672;2022-07-11T14:10:03;102104.13;;;25.96;46.11
20656;BME280;10487;53.320;8.672;2022-07-11T14:12:51;102098.97;;;25.93;46.16
20656;BME280;10487;53.320;8.672;2022-07-11T14:15:38;102110.84;;;25.92;46.06
20656;BME280;10487;53.320;8.672;2022-07-11T14:18:26;102104.00;;;25.88;45.92
20656;BME280;10487;53.320;8.672;2022-07-11T14:21:13;102107.03;;;25.85;45.98
20656;BME280;10487;53.320;8.672;2022-07-11T14:24:00;102104.88;;;25.79;46.21
20656;BME280;10487;53.320;8.672;2022-07-11T14:26:47;102098.19;;;25.73;45.92
20656;BME280;10487;53.320;8.672;2022-07-11T14:29:35;102109.47;;;25.68;46.11
20656;BME280;10487;53.320;8.672;2022-07-11T14:32:22;102099.22;;;25.62;45.90
20656;BME280;10487;53.320;8.672;2022-07-11T14:35:09;102105.81;;;25.60;45.98
20656;BME280;10487;53.320;8.672;2022-07-11T14:37:56;102113.34;;;25.56;46.13
20656;BME280;10487;53.320;8.672;2022-07-11T14:40:43;102107.53;;;25.51;45.84
20656;BME280;10487;53.320;8.672;2022-07-11T14:43:30;102111.38;;;25.49;45.84
20656;BME280;10487;53.320;8.672;2022-07-11T14:46:18;102117.06;;;25.46;45.87
20656;BME280;10487;53.320;8.672;2022-07-11T14:49:07;102113.53;;;25.45;45.87
20656;BME280;10487;53.320;8.672;2022-07-11T14:51:55;102107.09;;;25.46;45.99
20656;BME280;10487;53.320;8.672;2022-07-11T14:54:43;102106.22;;;25.46;45.86
20656;BME280;10487;53.320;8.672;2022-07-11T14:57:32;102108.13;;;25.45;45.75
20656;BME280;10487;53.320;8.672;2022-07-11T15:00:19;102106.34;;;25.44;45.81
20656;BME280;10487;53.320;8.672;2022-07-11T15:03:08;102104.53;;;25.45;45.71